createdAt,value
2023-12-20T00:01:33.481Z,99097.09
2023-12-20T00:04:02.020Z,99097.56
2023-12-20T00:06:30.469Z,99093.66
2023-12-20T00:08:59.057Z,99102.53
2023-12-20T00:11:27.376Z,99113.31
2023-12-20T00:13:55.722Z,99114.84
2023-12-20T00:16:25.483Z,99108.44
2023-12-20T00:18:53.920Z,99092.59
2023-12-20T00:21:22.327Z,99111.63
2023-12-20T00:23:50.648Z,99102.88
2023-12-20T00:26:19.045Z,99098.50
2023-12-20T00:28:47.469Z,99109.41
2023-12-20T00:31:16.009Z,99102.28
2023-12-20T00:33:47.693Z,99106.09
2023-12-20T00:36:16.138Z,99103.59
2023-12-20T00:38:45.593Z,99101.94
2023-12-20T00:41:13.995Z,99102.16
2023-12-20T00:43:42.283Z,99099.44
2023-12-20T00:46:10.830Z,99089.38
2023-12-20T00:48:39.273Z,99102.53
2023-12-20T00:51:09.333Z,99106.44
2023-12-20T00:53:37.657Z,99112.00
2023-12-20T00:56:06.443Z,99111.06
2023-12-20T00:58:35.032Z,99100.53
2023-12-20T01:01:03.640Z,99115.09
2023-12-20T01:03:32.532Z,99104.91
2023-12-20T01:06:01.106Z,99105.84
2023-12-20T01:08:30.857Z,99100.28
2023-12-20T01:10:59.227Z,99097.69
2023-12-20T01:13:27.608Z,99102.41
2023-12-20T01:15:56.753Z,99101.94
2023-12-20T01:18:25.078Z,99092.44
2023-12-20T01:20:53.465Z,99086.75
2023-12-20T01:23:21.865Z,99083.53
2023-12-20T01:25:51.618Z,99082.47
2023-12-20T01:28:19.974Z,99086.88
2023-12-20T01:30:48.490Z,99076.56
2023-12-20T01:33:16.790Z,99076.91
2023-12-20T01:35:45.134Z,99069.56
2023-12-20T01:38:13.563Z,99060.66
2023-12-20T01:40:41.915Z,99065.06
2023-12-20T01:43:13.535Z,99066.44
2023-12-20T01:45:42.412Z,99071.66
2023-12-20T01:48:12.219Z,99051.50
2023-12-20T01:50:41.829Z,99045.25
2023-12-20T01:53:12.722Z,99037.06
2023-12-20T01:55:42.760Z,99031.84
2023-12-20T01:58:13.548Z,99033.50
2023-12-20T02:00:42.328Z,99038.13
2023-12-20T02:03:10.997Z,99012.28
2023-12-20T02:05:41.165Z,99003.84
2023-12-20T02:08:09.851Z,98995.47
2023-12-20T02:10:38.271Z,98998.19
2023-12-20T02:13:06.947Z,98990.00
2023-12-20T02:15:38.083Z,98985.88
2023-12-20T02:18:07.502Z,98971.66
2023-12-20T02:20:35.999Z,98963.13
2023-12-20T02:23:06.041Z,98964.44
2023-12-20T02:25:34.393Z,98964.13
2023-12-20T02:28:03.029Z,98955.59
2023-12-20T02:30:31.823Z,98954.41
2023-12-20T02:33:01.852Z,98954.69
2023-12-20T02:35:30.246Z,98947.81
2023-12-20T02:37:58.620Z,98943.66
2023-12-20T02:40:28.419Z,98938.47
2023-12-20T02:42:56.818Z,98941.44
2023-12-20T02:45:25.176Z,98933.50
2023-12-20T02:47:53.541Z,98938.13
2023-12-20T02:50:22.051Z,98927.22
2023-12-20T02:52:50.352Z,98931.84
2023-12-20T02:55:18.700Z,98921.28
2023-12-20T02:57:48.717Z,98923.25
2023-12-20T03:00:17.870Z,98917.16
2023-12-20T03:02:46.214Z,98916.59
2023-12-20T03:05:14.687Z,98905.44
2023-12-20T03:07:43.277Z,98895.28
2023-12-20T03:10:19.806Z,98893.69
2023-12-20T03:12:53.566Z,98911.09
2023-12-20T03:15:21.985Z,98916.63
2023-12-20T03:17:50.754Z,98919.34
2023-12-20T03:20:19.480Z,98916.88
2023-12-20T03:22:47.801Z,98911.34
2023-12-20T03:25:16.607Z,98914.28
2023-12-20T03:27:45.220Z,98916.59
2023-12-20T03:30:15.787Z,98928.81
2023-12-20T03:32:44.197Z,98915.59
2023-12-20T03:35:12.721Z,98920.41
2023-12-20T03:37:41.138Z,98915.13
2023-12-20T03:40:10.752Z,98916.97
2023-12-20T03:42:39.268Z,98916.91
2023-12-20T03:45:09.339Z,98911.38
2023-12-20T03:47:39.048Z,98909.97
2023-12-20T03:50:09.127Z,98917.03
2023-12-20T03:52:37.674Z,98923.81
2023-12-20T03:55:07.371Z,98918.00
2023-12-20T03:57:35.762Z,98916.38
2023-12-20T04:00:04.302Z,98914.69
2023-12-20T04:02:32.682Z,98918.00
2023-12-20T04:05:02.431Z,98916.09
2023-12-20T04:07:31.059Z,98909.91
2023-12-20T04:09:59.568Z,98914.88
2023-12-20T04:12:29.498Z,98905.91
2023-12-20T04:14:58.223Z,98907.06
2023-12-20T04:17:26.582Z,98906.88
2023-12-20T04:19:55.158Z,98909.69
2023-12-20T04:22:25.336Z,98910.59
2023-12-20T04:24:53.760Z,98909.00
2023-12-20T04:27:22.148Z,98901.94
2023-12-20T04:29:50.500Z,98893.56
2023-12-20T04:32:18.839Z,98902.72
2023-12-20T04:34:47.259Z,98902.31
2023-12-20T04:37:15.685Z,98903.25
2023-12-20T04:39:45.491Z,98914.25
2023-12-20T04:42:13.979Z,98909.09
2023-12-20T04:44:42.344Z,98912.63
2023-12-20T04:47:10.724Z,98905.53
2023-12-20T04:49:39.148Z,98908.28
2023-12-20T04:52:08.181Z,98904.44
2023-12-20T04:54:36.550Z,98903.09
2023-12-20T04:57:06.765Z,98900.13
2023-12-20T04:59:35.181Z,98905.06
2023-12-20T05:02:03.524Z,98899.72
2023-12-20T05:04:31.985Z,98908.59
2023-12-20T05:07:00.546Z,98899.44
2023-12-20T05:09:28.975Z,98884.56
2023-12-20T05:11:57.319Z,98891.28
2023-12-20T05:14:28.281Z,98881.84
2023-12-20T05:16:57.683Z,98887.44
2023-12-20T05:19:26.438Z,98884.53
2023-12-20T05:21:54.947Z,98890.66
2023-12-20T05:24:23.340Z,98888.81
2023-12-20T05:26:53.740Z,98899.25
2023-12-20T05:29:22.716Z,98900.69
2023-12-20T05:31:52.478Z,98894.97
2023-12-20T05:34:21.565Z,98878.28
2023-12-20T05:36:50.086Z,98884.59
2023-12-20T05:39:18.506Z,98883.22
2023-12-20T05:41:46.920Z,98881.34
2023-12-20T05:44:15.294Z,98890.13
2023-12-20T05:46:43.643Z,98890.69
2023-12-20T05:49:14.858Z,98899.19
2023-12-20T05:51:43.366Z,98886.03
2023-12-20T05:54:12.233Z,98890.16
2023-12-20T05:56:40.550Z,98889.84
2023-12-20T05:59:09.228Z,98902.22
2023-12-20T06:01:37.676Z,98901.66
2023-12-20T06:04:06.326Z,98902.75
2023-12-20T06:06:36.350Z,98911.81
2023-12-20T06:09:05.217Z,98909.88
2023-12-20T06:11:33.555Z,98899.97
2023-12-20T06:14:01.956Z,98895.31
2023-12-20T06:16:30.355Z,98900.81
2023-12-20T06:18:58.908Z,98903.25
2023-12-20T06:21:27.318Z,98898.53
2023-12-20T06:23:57.118Z,98900.19
2023-12-20T06:26:25.499Z,98904.31
2023-12-20T06:28:53.942Z,98914.47
2023-12-20T06:31:22.317Z,98912.81
2023-12-20T06:33:58.508Z,98912.25
2023-12-20T06:36:27.051Z,98922.66
2023-12-20T06:38:56.831Z,98920.47
2023-12-20T06:41:25.662Z,98929.25
2023-12-20T06:43:54.337Z,98938.31
2023-12-20T06:46:21.921Z,98945.19
2023-12-20T06:48:50.515Z,98948.25
2023-12-20T06:51:20.964Z,98935.03
2023-12-20T06:53:49.340Z,98927.34
2023-12-20T06:56:19.867Z,98917.41
2023-12-20T06:58:48.827Z,98897.59
2023-12-20T07:01:18.664Z,98895.63
2023-12-20T07:03:47.376Z,98888.19
2023-12-20T07:06:17.905Z,98878.00
2023-12-20T07:08:46.485Z,98880.16
2023-12-20T07:11:15.015Z,98879.84
2023-12-20T07:13:44.778Z,98891.13
2023-12-20T07:16:13.145Z,98910.88
2023-12-20T07:18:41.805Z,98895.44
2023-12-20T07:21:10.234Z,98913.03
2023-12-20T07:23:38.578Z,98934.19
2023-12-20T07:26:06.924Z,98941.34
2023-12-20T07:28:35.732Z,98937.50
2023-12-20T07:31:06.038Z,98947.41
2023-12-20T07:33:39.359Z,98946.91
2023-12-20T07:36:09.410Z,98944.78
2023-12-20T07:38:38.027Z,98948.94
2023-12-20T07:41:06.641Z,98946.81
2023-12-20T07:43:35.357Z,98956.75
2023-12-20T07:46:09.153Z,98952.66
2023-12-20T07:48:38.284Z,98951.84
2023-12-20T07:51:08.764Z,98958.22
2023-12-20T07:53:37.306Z,98937.88
2023-12-20T07:56:16.541Z,98970.59
2023-12-20T07:58:51.741Z,98958.22
2023-12-20T08:01:23.784Z,98948.88
2023-12-20T08:03:52.979Z,98958.25
2023-12-20T08:06:21.815Z,98966.22
2023-12-20T08:08:55.862Z,98982.38
2023-12-20T08:11:32.608Z,98939.56
2023-12-20T08:14:01.461Z,98965.38
2023-12-20T08:16:31.293Z,98962.06
2023-12-20T08:18:59.900Z,98967.56
2023-12-20T08:21:28.698Z,98973.88
2023-12-20T08:23:57.175Z,98970.31
2023-12-20T08:26:25.630Z,98985.41
2023-12-20T08:28:54.115Z,98975.81
2023-12-20T08:31:23.335Z,98983.22
2023-12-20T08:33:54.510Z,98979.38
2023-12-20T08:36:24.629Z,98999.44
2023-12-20T08:38:53.604Z,98985.97
2023-12-20T08:41:22.279Z,98995.31
2023-12-20T08:43:50.732Z,99004.38
2023-12-20T08:46:19.312Z,99001.63
2023-12-20T08:48:47.975Z,99001.66
2023-12-20T08:51:17.941Z,99000.53
2023-12-20T08:53:48.838Z,99002.75
2023-12-20T08:56:19.171Z,99014.28
2023-12-20T08:58:48.069Z,99012.91
2023-12-20T09:01:17.143Z,99021.44
2023-12-20T09:03:45.812Z,99021.13
2023-12-20T09:06:14.522Z,99024.44
2023-12-20T09:08:44.326Z,99017.84
2023-12-20T09:11:13.221Z,99033.75
2023-12-20T09:13:42.067Z,99023.59
2023-12-20T09:16:11.042Z,99027.44
2023-12-20T09:18:39.520Z,99016.97
2023-12-20T09:21:07.914Z,99027.44
2023-12-20T09:23:37.793Z,99036.78
2023-12-20T09:26:07.734Z,99025.53
2023-12-20T09:28:38.400Z,99048.34
2023-12-20T09:31:07.872Z,99032.41
2023-12-20T09:33:36.586Z,99052.75
2023-12-20T09:36:05.700Z,99044.50
2023-12-20T09:38:34.157Z,99052.47
2023-12-20T09:41:05.053Z,99033.50
2023-12-20T09:43:40.141Z,99063.19
2023-12-20T09:46:09.661Z,99054.41
2023-12-20T09:48:39.658Z,99046.41
2023-12-20T09:51:08.428Z,99046.69
2023-12-20T09:53:41.615Z,99042.31
2023-12-20T09:56:10.429Z,99029.66
2023-12-20T09:58:41.554Z,99037.06
2023-12-20T10:01:11.121Z,99035.13
2023-12-20T10:03:43.366Z,99030.72
2023-12-20T10:06:12.830Z,99034.81
2023-12-20T10:08:41.613Z,99032.88
2023-12-20T10:11:10.040Z,99019.97
2023-12-20T10:13:42.685Z,99023.81
2023-12-20T10:16:11.590Z,99018.59
2023-12-20T10:18:40.451Z,99007.63
2023-12-20T10:21:11.387Z,99006.50
2023-12-20T10:23:42.125Z,98998.53
2023-12-20T10:26:11.164Z,99004.59
2023-12-20T10:28:41.052Z,98997.72
2023-12-20T10:31:09.623Z,98997.72
2023-12-20T10:33:38.248Z,98975.22
2023-12-20T10:36:09.120Z,98995.81
2023-12-20T10:38:40.927Z,99002.41
2023-12-20T10:41:12.189Z,98999.38
2023-12-20T10:43:42.995Z,98987.03
2023-12-20T10:46:11.597Z,98987.59
2023-12-20T10:48:41.867Z,98980.72
2023-12-20T10:51:11.235Z,98978.00
2023-12-20T10:53:42.989Z,98967.56
2023-12-20T10:56:17.929Z,98970.31
2023-12-20T10:58:48.925Z,98969.47
2023-12-20T11:01:19.369Z,98964.00
2023-12-20T11:03:52.256Z,98959.63
2023-12-20T11:06:34.793Z,98965.91
2023-12-20T11:09:14.700Z,98949.44
2023-12-20T11:12:01.634Z,98950.00
2023-12-20T11:14:41.401Z,98943.97
2023-12-20T11:17:11.196Z,98937.09
2023-12-20T11:20:13.375Z,98931.31
2023-12-20T11:22:54.217Z,98933.53
2023-12-20T11:25:23.030Z,98939.03
2023-12-20T11:28:10.183Z,98933.25
2023-12-20T11:30:49.889Z,98933.25
2023-12-20T11:33:19.005Z,98932.16
2023-12-20T11:35:49.609Z,98923.63
2023-12-20T11:38:18.151Z,98915.91
2023-12-20T11:40:46.742Z,98922.78
2023-12-20T11:43:31.438Z,98921.69
2023-12-20T11:46:07.086Z,98930.19
2023-12-20T11:48:37.598Z,98932.94
2023-12-20T11:51:11.910Z,98942.03
2023-12-20T11:53:40.331Z,98931.81
2023-12-20T11:56:09.449Z,98936.22
2023-12-20T11:58:38.429Z,98924.94
2023-12-20T12:01:10.207Z,98932.59
2023-12-20T12:03:38.780Z,98923.50
2023-12-20T12:06:09.024Z,98912.50
2023-12-20T12:08:38.996Z,98920.13
2023-12-20T12:11:07.744Z,98919.53
2023-12-20T12:13:36.463Z,98920.84
2023-12-20T12:16:06.685Z,98905.91
2023-12-20T12:18:36.893Z,98912.50
2023-12-20T12:21:10.579Z,98912.16
2023-12-20T12:23:44.099Z,98897.00
2023-12-20T12:26:12.537Z,98907.69
2023-12-20T12:28:43.502Z,98901.06
2023-12-20T12:31:15.925Z,98910.41
2023-12-20T12:33:46.330Z,98902.16
2023-12-20T12:36:17.306Z,98898.88
2023-12-20T12:38:45.788Z,98914.31
2023-12-20T12:41:16.517Z,98898.38
2023-12-20T12:43:44.950Z,98900.06
2023-12-20T12:46:13.871Z,98889.91
2023-12-20T12:48:43.990Z,98905.34
2023-12-20T12:51:15.766Z,98894.59
2023-12-20T12:53:44.298Z,98900.13
2023-12-20T12:56:14.942Z,98891.63
2023-12-20T12:58:43.410Z,98894.66
2023-12-20T13:01:11.842Z,98896.00
2023-12-20T13:03:40.341Z,98895.19
2023-12-20T13:06:10.167Z,98894.94
2023-12-20T13:08:40.108Z,98891.66
2023-12-20T13:11:08.695Z,98887.81
2023-12-20T13:13:37.751Z,98885.28
2023-12-20T13:16:07.337Z,98901.25
2023-12-20T13:18:35.976Z,98906.97
2023-12-20T13:21:04.637Z,98890.19
2023-12-20T13:23:33.037Z,98897.34
2023-12-20T13:26:02.843Z,98895.41
2023-12-20T13:28:31.410Z,98905.59
2023-12-20T13:31:00.082Z,98907.25
2023-12-20T13:33:28.614Z,98916.06
2023-12-20T13:35:59.516Z,98918.59
2023-12-20T13:38:28.033Z,98907.00
2023-12-20T13:40:56.401Z,98908.97
2023-12-20T13:43:26.227Z,98902.34
2023-12-20T13:45:54.760Z,98902.94
2023-12-20T13:48:23.277Z,98903.50
2023-12-20T13:50:51.700Z,98898.84
2023-12-20T13:53:20.312Z,98893.38
2023-12-20T13:55:48.707Z,98893.13
2023-12-20T13:58:17.179Z,98901.66
2023-12-20T14:00:47.142Z,98906.06
2023-12-20T14:03:15.595Z,98903.63
2023-12-20T14:05:44.223Z,98908.63
2023-12-20T14:08:12.874Z,98908.34
2023-12-20T14:10:41.472Z,98907.53
2023-12-20T14:13:09.979Z,98904.25
2023-12-20T14:15:38.550Z,98916.38
2023-12-20T14:18:10.004Z,98904.56
2023-12-20T14:20:40.775Z,98899.38
2023-12-20T14:23:09.180Z,98904.63
2023-12-20T14:25:46.176Z,98896.66
2023-12-20T14:28:20.305Z,98896.41
2023-12-20T14:30:50.415Z,98896.69
2023-12-20T14:33:22.868Z,98904.94
2023-12-20T14:35:51.689Z,98914.28
2023-12-20T14:38:20.662Z,98919.50
2023-12-20T14:40:49.171Z,98913.22
2023-12-20T14:43:17.910Z,98912.91
2023-12-20T14:45:46.714Z,98915.13
2023-12-20T14:48:15.252Z,98914.00
2023-12-20T14:50:45.456Z,98914.28
2023-12-20T14:53:13.887Z,98907.72
2023-12-20T14:55:42.361Z,98919.53
2023-12-20T14:58:10.911Z,98923.91
2023-12-20T15:00:39.884Z,98937.91
2023-12-20T15:03:08.484Z,98927.22
2023-12-20T15:05:37.608Z,98934.09
2023-12-20T15:08:08.527Z,98944.53
2023-12-20T15:10:37.414Z,98943.97
2023-12-20T15:13:07.332Z,98942.31
2023-12-20T15:15:36.141Z,98952.75
2023-12-20T15:18:05.287Z,98940.94
2023-12-20T15:20:35.002Z,98941.47
2023-12-20T15:23:08.033Z,98939.28
2023-12-20T15:25:37.964Z,98948.63
2023-12-20T15:28:06.674Z,98935.44
2023-12-20T15:30:37.581Z,98952.19
2023-12-20T15:33:07.836Z,98941.47
2023-12-20T15:35:36.614Z,98946.69
2023-12-20T15:38:06.202Z,98953.84
2023-12-20T15:40:34.782Z,98956.59
2023-12-20T15:43:04.727Z,98961.53
2023-12-20T15:45:33.126Z,98955.75
2023-12-20T15:48:01.831Z,98957.41
2023-12-20T15:50:30.336Z,98951.09
2023-12-20T15:52:58.754Z,98956.00
2023-12-20T15:55:27.290Z,98967.00
2023-12-20T15:57:56.000Z,98972.25
2023-12-20T16:00:25.833Z,98970.03
2023-12-20T16:02:54.492Z,98970.28
2023-12-20T16:05:23.430Z,98967.28
2023-12-20T16:07:52.477Z,98970.88
2023-12-20T16:10:21.288Z,98974.16
2023-12-20T16:12:48.722Z,98971.97
2023-12-20T16:15:19.063Z,98988.19
2023-12-20T16:17:49.142Z,98979.66
2023-12-20T16:20:18.217Z,98979.09
2023-12-20T16:22:46.700Z,98975.53
2023-12-20T16:25:15.113Z,98969.78
2023-12-20T16:27:46.305Z,98963.44
2023-12-20T16:30:16.988Z,98964.28
2023-12-20T16:32:45.708Z,98965.38
2023-12-20T16:35:15.969Z,98969.50
2023-12-20T16:37:44.564Z,98964.28
2023-12-20T16:40:14.159Z,98970.88
2023-12-20T16:42:42.708Z,98999.41
2023-12-20T16:45:11.761Z,99003.53
2023-12-20T16:47:40.188Z,99001.59
2023-12-20T16:50:10.890Z,99012.25
2023-12-20T16:52:41.729Z,99014.19
2023-12-20T16:55:12.860Z,99016.63
2023-12-20T16:57:41.699Z,99007.31
2023-12-20T17:00:11.068Z,99015.19
2023-12-20T17:02:40.704Z,98997.63
2023-12-20T17:05:11.537Z,99003.66
2023-12-20T17:07:41.884Z,99004.47
2023-12-20T17:10:11.182Z,99002.28
2023-12-20T17:12:39.588Z,99002.81
2023-12-20T17:15:09.222Z,99006.06
2023-12-20T17:17:38.108Z,99001.94
2023-12-20T17:20:08.819Z,99004.13
2023-12-20T17:22:37.236Z,99006.31
2023-12-20T17:25:12.604Z,99013.16
2023-12-20T17:27:42.212Z,99012.63
2023-12-20T17:30:12.214Z,99008.47
2023-12-20T17:32:41.150Z,99014.53
2023-12-20T17:35:10.184Z,99010.63
2023-12-20T17:37:38.684Z,99010.38
2023-12-20T17:40:12.260Z,99013.63
2023-12-20T17:42:40.617Z,99018.84
2023-12-20T17:45:09.444Z,99012.22
2023-12-20T17:47:38.195Z,99017.97
2023-12-20T17:50:08.247Z,99016.84
2023-12-20T17:52:36.759Z,99002.84
2023-12-20T17:55:07.232Z,99010.50
2023-12-20T17:57:35.676Z,99020.09
2023-12-20T18:00:16.419Z,99032.94
2023-12-20T18:02:45.758Z,99023.88
2023-12-20T18:05:16.229Z,99031.56
2023-12-20T18:07:48.021Z,99031.78
2023-12-20T18:10:20.585Z,99025.75
2023-12-20T18:12:50.567Z,99019.72
2023-12-20T18:15:20.979Z,99027.94
2023-12-20T18:17:51.014Z,99025.19
2023-12-20T18:20:20.994Z,99029.59
2023-12-20T18:22:50.810Z,99018.66
2023-12-20T18:25:23.766Z,99021.38
2023-12-20T18:27:54.034Z,99033.75
2023-12-20T18:30:26.041Z,99035.38
2023-12-20T18:32:56.493Z,99037.03
2023-12-20T18:35:27.761Z,99034.03
2023-12-20T18:37:58.412Z,99035.69
2023-12-20T18:40:30.650Z,99051.84
2023-12-20T18:43:01.234Z,99056.25
2023-12-20T18:45:32.627Z,99033.50
2023-12-20T18:48:03.391Z,99040.91
2023-12-20T18:50:34.318Z,99038.44
2023-12-20T18:53:04.725Z,99031.84
2023-12-20T18:55:36.869Z,99026.34
2023-12-20T18:58:07.748Z,99018.13
2023-12-20T19:00:39.263Z,99023.38
2023-12-20T19:03:10.199Z,99021.44
2023-12-20T19:05:40.753Z,99007.16
2023-12-20T19:08:11.521Z,98992.09
2023-12-20T19:10:43.804Z,99014.28
2023-12-20T19:13:14.848Z,98997.00
2023-12-20T19:15:47.699Z,99003.59
2023-12-20T19:18:20.932Z,98998.34
2023-12-20T19:20:51.643Z,98981.34
2023-12-20T19:23:23.499Z,98989.84
2023-12-20T19:25:55.898Z,98962.16
2023-12-20T19:28:26.842Z,98944.91
2023-12-20T19:30:59.701Z,98944.63
2023-12-20T19:33:30.775Z,98945.69
2023-12-20T19:36:01.532Z,98899.41
2023-12-20T19:38:32.848Z,98960.50
2023-12-20T19:41:05.893Z,98948.44
2023-12-20T19:43:37.500Z,98916.41
2023-12-20T19:46:09.257Z,98928.19
2023-12-20T19:48:40.514Z,98915.56
2023-12-20T19:51:12.865Z,98927.91
2023-12-20T19:53:43.972Z,98937.78
2023-12-20T19:56:17.734Z,98928.47
2023-12-20T19:58:49.170Z,98927.94
2023-12-20T20:01:20.695Z,98921.91
2023-12-20T20:03:52.402Z,98928.50
2023-12-20T20:06:23.863Z,98913.97
2023-12-20T20:08:56.927Z,98926.03
2023-12-20T20:11:35.314Z,98925.75
2023-12-20T20:14:08.385Z,98904.94
2023-12-20T20:16:39.601Z,98916.47
2023-12-20T20:19:10.907Z,98924.41
2023-12-20T20:21:45.000Z,98924.41
2023-12-20T20:24:16.450Z,98935.38
2023-12-20T20:26:49.337Z,98938.66
2023-12-20T20:29:20.725Z,98955.66
2023-12-20T20:31:51.846Z,98956.75
2023-12-20T20:34:23.084Z,98966.63
2023-12-20T20:36:53.662Z,98966.38
2023-12-20T20:39:24.659Z,98976.78
2023-12-20T20:41:57.288Z,98989.69
2023-12-20T20:44:28.246Z,98977.88
2023-12-20T20:46:59.621Z,98993.22
2023-12-20T20:49:30.825Z,98972.13
2023-12-20T20:52:01.691Z,98961.44
2023-12-20T20:54:32.917Z,98960.63
2023-12-20T20:57:05.512Z,98973.75
2023-12-20T20:59:36.250Z,98983.06
2023-12-20T21:02:05.036Z,98984.72
2023-12-20T21:04:33.939Z,98969.63
2023-12-20T21:07:02.529Z,98968.81
2023-12-20T21:09:30.934Z,98973.22
2023-12-20T21:11:59.335Z,98971.84
2023-12-20T21:14:29.044Z,98957.31
2023-12-20T21:16:57.458Z,98956.25
2023-12-20T21:19:25.996Z,98957.59
2023-12-20T21:21:54.429Z,98954.84
2023-12-20T21:24:22.874Z,98962.28
2023-12-20T21:26:51.214Z,98962.28
2023-12-20T21:29:19.601Z,98964.19
2023-12-20T21:31:49.453Z,98953.78
2023-12-20T21:34:18.002Z,98962.84
2023-12-20T21:36:46.469Z,98962.00
2023-12-20T21:39:15.227Z,98972.97
2023-12-20T21:41:43.616Z,98953.50
2023-12-20T21:44:11.978Z,98967.47
2023-12-20T21:46:41.750Z,98960.66
2023-12-20T21:49:11.682Z,98959.81
2023-12-20T21:51:40.140Z,98971.09
2023-12-20T21:54:08.524Z,98968.91
2023-12-20T21:56:37.916Z,98962.06
2023-12-20T21:59:06.334Z,98964.53
2023-12-20T22:01:34.851Z,98960.44
2023-12-20T22:04:03.381Z,98965.38
2023-12-20T22:06:33.421Z,98965.13
2023-12-20T22:09:01.800Z,98941.00
2023-12-20T22:11:30.165Z,98965.38
2023-12-20T22:13:58.603Z,98965.38
2023-12-20T22:16:27.102Z,98965.94
2023-12-20T22:18:58.518Z,98941.25
2023-12-20T22:21:26.940Z,98955.81
2023-12-20T22:23:55.731Z,98945.66
2023-12-20T22:26:24.352Z,98947.31
2023-12-20T22:28:53.150Z,98948.41
2023-12-20T22:31:21.608Z,98943.75
2023-12-20T22:33:50.026Z,98932.78
2023-12-20T22:36:19.744Z,98957.19
2023-12-20T22:38:48.148Z,98943.22
2023-12-20T22:41:18.295Z,98939.66
2023-12-20T22:43:46.671Z,98938.28
2023-12-20T22:46:15.271Z,98934.44
2023-12-20T22:48:43.892Z,98920.47
2023-12-20T22:51:12.327Z,98930.34
2023-12-20T22:53:40.755Z,98922.94
2023-12-20T22:56:09.698Z,98915.78
2023-12-20T22:58:39.487Z,98904.03
2023-12-20T23:01:08.033Z,98910.06
2023-12-20T23:03:37.613Z,98915.53
2023-12-20T23:06:07.039Z,98892.78
2023-12-20T23:08:35.514Z,98881.25
2023-12-20T23:11:03.931Z,98896.06
2023-12-20T23:13:32.596Z,98892.47
2023-12-20T23:16:02.511Z,98890.03
2023-12-20T23:18:30.968Z,98906.47
2023-12-20T23:20:59.426Z,98899.59
2023-12-20T23:23:28.538Z,98898.53
2023-12-20T23:25:56.940Z,98868.63
2023-12-20T23:28:25.437Z,98876.84
2023-12-20T23:30:53.887Z,98880.41
2023-12-20T23:33:24.399Z,98883.97
2023-12-20T23:35:52.872Z,98892.22
2023-12-20T23:38:21.223Z,98870.56
2023-12-20T23:40:49.613Z,98855.72
2023-12-20T23:43:18.112Z,98864.50
2023-12-20T23:45:46.514Z,98867.81
2023-12-20T23:48:14.933Z,98874.09
2023-12-20T23:50:44.831Z,98874.09
2023-12-20T23:53:13.277Z,98866.97
2023-12-20T23:55:41.946Z,98870.81
2023-12-20T23:58:10.572Z,98874.66
